sensor_id;sensor_type;location;lat;lon;timestamp;pressure;altitude;pressure_sealevel;temperature;humidity
12868;BME280;33517;49.866;8.320;2023-04-28T00:01:34;100307.56;;;12.17;65.13
12868;BME280;33517;49.866;8.320;2023-04-28T00:04:25;100300.47;;;12.17;65.84
12868;BME280;33517;49.866;8.320;2023-04-28T00:07:19;100297.47;;;12.20;65.33
12868;BME280;33517;49.866;8.320;2023-04-28T00:10:11;100301.56;;;12.23;65.54
12868;BME280;33517;49.866;8.320;2023-04-28T00:13:02;100296.81;;;12.18;65.69
12868;BME280;33517;49.866;8.320;2023-04-28T00:15:54;100309.88;;;12.12;68.47
12868;BME280;33517;49.866;8.320;2023-04-28T00:18:46;100294.44;;;12.09;67.62
12868;BME280;33517;49.866;8.320;2023-04-28T00:21:38;100288.31;;;12.08;68.16
12868;BME280;33517;49.866;8.320;2023-04-28T00:24:31;100291.16;;;12.07;67.38
12868;BME280;33517;49.866;8.320;2023-04-28T00:27:25;100287.69;;;12.06;67.83
12868;BME280;33517;49.866;8.320;2023-04-28T00:30:17;100285.88;;;12.07;68.04
12868;BME280;33517;49.866;8.320;2023-04-28T00:33:09;100278.41;;;12.10;67.71
12868;BME280;33517;49.866;8.320;2023-04-28T00:36:01;100273.78;;;12.12;68.17
12868;BME280;33517;49.866;8.320;2023-04-28T00:38:53;100267.34;;;12.15;67.75
12868;BME280;33517;49.866;8.320;2023-04-28T00:41:46;100256.25;;;12.19;67.35
12868;BME280;33517;49.866;8.320;2023-04-28T00:44:38;100253.91;;;12.24;68.16
12868;BME280;33517;49.866;8.320;2023-04-28T00:47:31;100235.06;;;12.27;67.21
12868;BME280;33517;49.866;8.320;2023-04-28T00:50:24;100233.44;;;12.26;68.19
12868;BME280;33517;49.866;8.320;2023-04-28T00:53:16;100231.78;;;12.25;68.50
12868;BME280;33517;49.866;8.320;2023-04-28T00:56:08;100226.06;;;12.22;69.60
12868;BME280;33517;49.866;8.320;2023-04-28T00:59:02;100220.78;;;12.22;68.79
12868;BME280;33517;49.866;8.320;2023-04-28T01:01:53;100222.25;;;12.24;69.07
12868;BME280;33517;49.866;8.320;2023-04-28T01:04:46;100215.16;;;12.25;69.86
12868;BME280;33517;49.866;8.320;2023-04-28T01:07:38;100215.94;;;12.25;70.13
12868;BME280;33517;49.866;8.320;2023-04-28T01:10:30;100206.59;;;12.23;71.17
12868;BME280;33517;49.866;8.320;2023-04-28T01:13:22;100203.13;;;12.22;70.99
12868;BME280;33517;49.866;8.320;2023-04-28T01:16:15;100211.88;;;12.23;71.06
12868;BME280;33517;49.866;8.320;2023-04-28T01:19:12;100210.41;;;12.20;71.35
12868;BME280;33517;49.866;8.320;2023-04-28T01:22:06;100210.78;;;12.17;71.20
12868;BME280;33517;49.866;8.320;2023-04-28T01:25:01;100204.94;;;12.22;71.52
12868;BME280;33517;49.866;8.320;2023-04-28T01:27:53;100210.22;;;12.22;72.13
12868;BME280;33517;49.866;8.320;2023-04-28T01:30:46;100204.28;;;12.05;74.96
12868;BME280;33517;49.866;8.320;2023-04-28T01:33:37;100196.66;;;12.10;73.51
12868;BME280;33517;49.866;8.320;2023-04-28T01:36:29;100188.03;;;12.16;72.44
12868;BME280;33517;49.866;8.320;2023-04-28T01:39:22;100188.47;;;12.20;73.23
12868;BME280;33517;49.866;8.320;2023-04-28T01:42:15;100184.84;;;12.21;73.00
12868;BME280;33517;49.866;8.320;2023-04-28T01:45:09;100195.41;;;12.21;72.79
12868;BME280;33517;49.866;8.320;2023-04-28T01:48:01;100196.22;;;12.21;73.15
12868;BME280;33517;49.866;8.320;2023-04-28T01:50:53;100201.84;;;12.18;72.81
12868;BME280;33517;49.866;8.320;2023-04-28T01:53:45;100198.56;;;12.16;72.88
12868;BME280;33517;49.866;8.320;2023-04-28T01:56:36;100196.94;;;12.15;72.95
12868;BME280;33517;49.866;8.320;2023-04-28T01:59:30;100192.47;;;12.16;73.29
12868;BME280;33517;49.866;8.320;2023-04-28T02:02:21;100194.78;;;12.19;73.78
12868;BME280;33517;49.866;8.320;2023-04-28T02:05:13;100196.59;;;12.18;72.77
12868;BME280;33517;49.866;8.320;2023-04-28T02:08:05;100189.50;;;12.19;73.57
12868;BME280;33517;49.866;8.320;2023-04-28T02:10:57;100206.13;;;12.19;73.47
12868;BME280;33517;49.866;8.320;2023-04-28T02:13:51;100196.22;;;12.21;73.10
12868;BME280;33517;49.866;8.320;2023-04-28T02:16:44;100199.84;;;12.20;73.46
12868;BME280;33517;49.866;8.320;2023-04-28T02:19:36;100201.84;;;12.18;73.85
12868;BME280;33517;49.866;8.320;2023-04-28T02:22:28;100197.41;;;12.19;74.16
12868;BME280;33517;49.866;8.320;2023-04-28T02:25:20;100198.19;;;12.19;74.26
12868;BME280;33517;49.866;8.320;2023-04-28T02:28:12;100193.94;;;12.18;73.17
12868;BME280;33517;49.866;8.320;2023-04-28T02:31:05;100188.66;;;12.18;74.16
12868;BME280;33517;49.866;8.320;2023-04-28T02:33:58;100181.22;;;12.22;72.49
12868;BME280;33517;49.866;8.320;2023-04-28T02:36:50;100178.94;;;12.19;73.52
12868;BME280;33517;49.866;8.320;2023-04-28T02:39:42;100177.09;;;12.19;73.00
12868;BME280;33517;49.866;8.320;2023-04-28T02:42:34;100176.13;;;12.20;73.97
12868;BME280;33517;49.866;8.320;2023-04-28T02:45:26;100178.75;;;12.20;73.71
12868;BME280;33517;49.866;8.320;2023-04-28T02:48:18;100170.47;;;12.23;73.91
12868;BME280;33517;49.866;8.320;2023-04-28T02:51:11;100170.66;;;12.22;73.04
12868;BME280;33517;49.866;8.320;2023-04-28T02:54:03;100169.81;;;12.21;73.83
12868;BME280;33517;49.866;8.320;2023-04-28T02:56:56;100176.75;;;12.22;73.26
12868;BME280;33517;49.866;8.320;2023-04-28T02:59:48;100167.03;;;12.23;73.77
12868;BME280;33517;49.866;8.320;2023-04-28T03:02:40;100167.03;;;12.23;73.16
12868;BME280;33517;49.866;8.320;2023-04-28T03:05:32;100170.31;;;12.25;73.42
12868;BME280;33517;49.866;8.320;2023-04-28T03:08:25;100161.75;;;12.23;73.64
12868;BME280;33517;49.866;8.320;2023-04-28T03:11:17;100161.56;;;12.24;73.58
12868;BME280;33517;49.866;8.320;2023-04-28T03:14:09;100166.66;;;12.26;74.04
12868;BME280;33517;49.866;8.320;2023-04-28T03:17:01;100161.38;;;12.26;73.95
12868;BME280;33517;49.866;8.320;2023-04-28T03:19:53;100151.72;;;12.18;74.98
12868;BME280;33517;49.866;8.320;2023-04-28T03:22:44;100139.06;;;12.14;75.56
12868;BME280;33517;49.866;8.320;2023-04-28T03:25:38;100136.81;;;12.11;75.89
12868;BME280;33517;49.866;8.320;2023-04-28T03:28:30;100140.44;;;12.10;75.92
12868;BME280;33517;49.866;8.320;2023-04-28T03:31:21;100127.44;;;12.08;75.95
12868;BME280;33517;49.866;8.320;2023-04-28T03:34:13;100136.19;;;12.09;75.90
12868;BME280;33517;49.866;8.320;2023-04-28T03:37:05;100133.53;;;12.09;76.06
12868;BME280;33517;49.866;8.320;2023-04-28T03:39:57;100134.63;;;12.14;75.73
12868;BME280;33517;49.866;8.320;2023-04-28T03:42:50;100135.53;;;12.21;76.14
12868;BME280;33517;49.866;8.320;2023-04-28T03:45:42;100132.53;;;12.24;75.49
12868;BME280;33517;49.866;8.320;2023-04-28T03:48:34;100133.44;;;12.31;75.21
12868;BME280;33517;49.866;8.320;2023-04-28T03:51:26;100119.28;;;12.32;75.30
12868;BME280;33517;49.866;8.320;2023-04-28T03:54:18;100114.63;;;12.34;75.22
12868;BME280;33517;49.866;8.320;2023-04-28T03:57:10;100111.78;;;12.36;75.07
12868;BME280;33517;49.866;8.320;2023-04-28T04:00:04;100106.97;;;12.39;74.73
12868;BME280;33517;49.866;8.320;2023-04-28T04:02:57;100106.13;;;12.39;75.10
12868;BME280;33517;49.866;8.320;2023-04-28T04:05:49;100110.97;;;12.35;75.93
12868;BME280;33517;49.866;8.320;2023-04-28T04:08:41;100099.53;;;12.28;75.88
12868;BME280;33517;49.866;8.320;2023-04-28T04:11:32;100089.16;;;12.27;76.34
12868;BME280;33517;49.866;8.320;2023-04-28T04:14:24;100086.34;;;12.28;76.15
12868;BME280;33517;49.866;8.320;2023-04-28T04:17:17;100081.84;;;12.29;76.31
12868;BME280;33517;49.866;8.320;2023-04-28T04:20:10;100082.69;;;12.29;75.89
12868;BME280;33517;49.866;8.320;2023-04-28T04:23:02;100081.84;;;12.29;76.97
12868;BME280;33517;49.866;8.320;2023-04-28T04:25:54;100070.50;;;12.28;76.96
12868;BME280;33517;49.866;8.320;2023-04-28T04:28:46;100071.69;;;12.26;76.98
12868;BME280;33517;49.866;8.320;2023-04-28T04:31:38;100075.50;;;12.23;76.64
12868;BME280;33517;49.866;8.320;2023-04-28T04:34:31;100070.78;;;12.19;77.94
12868;BME280;33517;49.866;8.320;2023-04-28T04:37:23;100069.97;;;12.18;77.86
12868;BME280;33517;49.866;8.320;2023-04-28T04:40:15;100067.22;;;12.12;78.02
12868;BME280;33517;49.866;8.320;2023-04-28T04:43:07;100058.50;;;11.96;78.47
12868;BME280;33517;49.866;8.320;2023-04-28T04:45:59;100059.88;;;12.07;78.15
12868;BME280;33517;49.866;8.320;2023-04-28T04:48:53;100073.41;;;12.04;78.44
12868;BME280;33517;49.866;8.320;2023-04-28T04:51:46;100081.16;;;12.06;78.57
12868;BME280;33517;49.866;8.320;2023-04-28T04:54:38;100076.69;;;12.06;78.77
12868;BME280;33517;49.866;8.320;2023-04-28T04:57:30;100072.25;;;12.07;78.88
12868;BME280;33517;49.866;8.320;2023-04-28T05:00:22;100081.25;;;12.12;77.96
12868;BME280;33517;49.866;8.320;2023-04-28T05:03:13;100081.53;;;12.17;77.53
12868;BME280;33517;49.866;8.320;2023-04-28T05:06:05;100088.63;;;12.17;78.06
12868;BME280;33517;49.866;8.320;2023-04-28T05:08:59;100094.44;;;12.12;79.24
12868;BME280;33517;49.866;8.320;2023-04-28T05:11:51;100089.53;;;12.09;79.03
12868;BME280;33517;49.866;8.320;2023-04-28T05:14:42;100087.97;;;12.15;79.20
12868;BME280;33517;49.866;8.320;2023-04-28T05:17:34;100092.63;;;12.13;79.49
12868;BME280;33517;49.866;8.320;2023-04-28T05:20:26;100085.25;;;12.23;79.58
12868;BME280;33517;49.866;8.320;2023-04-28T05:23:18;100084.78;;;12.34;80.56
12868;BME280;33517;49.866;8.320;2023-04-28T05:26:12;100091.13;;;12.39;80.21
12868;BME280;33517;49.866;8.320;2023-04-28T05:29:04;100090.41;;;12.45;80.12
12868;BME280;33517;49.866;8.320;2023-04-28T05:31:56;100093.47;;;12.49;79.09
12868;BME280;33517;49.866;8.320;2023-04-28T05:34:48;100088.66;;;12.52;79.54
12868;BME280;33517;49.866;8.320;2023-04-28T05:37:40;100085.47;;;12.57;79.52
12868;BME280;33517;49.866;8.320;2023-04-28T05:40:33;100100.28;;;12.58;79.90
12868;BME280;33517;49.866;8.320;2023-04-28T05:43:26;100112.50;;;12.59;79.16
12868;BME280;33517;49.866;8.320;2023-04-28T05:46:18;100112.66;;;12.57;80.22
12868;BME280;33517;49.866;8.320;2023-04-28T05:49:10;100121.16;;;12.53;80.35
12868;BME280;33517;49.866;8.320;2023-04-28T05:52:02;100114.59;;;12.49;80.84
12868;BME280;33517;49.866;8.320;2023-04-28T05:54:54;100110.88;;;12.43;80.63
12868;BME280;33517;49.866;8.320;2023-04-28T05:57:46;100104.13;;;12.41;81.41
12868;BME280;33517;49.866;8.320;2023-04-28T06:00:39;100102.13;;;12.43;80.89
12868;BME280;33517;49.866;8.320;2023-04-28T06:03:31;100097.25;;;12.40;80.46
12868;BME280;33517;49.866;8.320;2023-04-28T06:06:24;100102.78;;;12.45;81.08
12868;BME280;33517;49.866;8.320;2023-04-28T06:09:17;100113.13;;;12.46;81.40
12868;BME280;33517;49.866;8.320;2023-04-28T06:12:09;100095.22;;;12.42;80.91
12868;BME280;33517;49.866;8.320;2023-04-28T06:15:01;100096.50;;;12.46;82.02
12868;BME280;33517;49.866;8.320;2023-04-28T06:17:55;100097.59;;;12.51;81.18
12868;BME280;33517;49.866;8.320;2023-04-28T06:20:46;100118.69;;;12.51;82.92
12868;BME280;33517;49.866;8.320;2023-04-28T06:23:38;100120.41;;;12.44;82.45
12868;BME280;33517;49.866;8.320;2023-04-28T06:26:31;100114.50;;;12.42;82.99
12868;BME280;33517;49.866;8.320;2023-04-28T06:29:23;100113.22;;;12.38;83.39
12868;BME280;33517;49.866;8.320;2023-04-28T06:32:17;100113.25;;;12.24;84.28
12868;BME280;33517;49.866;8.320;2023-04-28T06:35:10;100114.72;;;12.26;83.34
12868;BME280;33517;49.866;8.320;2023-04-28T06:38:02;100116.34;;;12.27;83.60
12868;BME280;33517;49.866;8.320;2023-04-28T06:40:54;100108.81;;;12.24;84.28
12868;BME280;33517;49.866;8.320;2023-04-28T06:43:46;100116.72;;;12.24;84.11
12868;BME280;33517;49.866;8.320;2023-04-28T06:46:38;100117.16;;;12.28;84.74
12868;BME280;33517;49.866;8.320;2023-04-28T06:49:30;100119.28;;;12.32;84.59
12868;BME280;33517;49.866;8.320;2023-04-28T06:52:23;100113.81;;;12.34;83.93
12868;BME280;33517;49.866;8.320;2023-04-28T06:55:18;100104.81;;;12.28;84.59
12868;BME280;33517;49.866;8.320;2023-04-28T06:58:10;100106.72;;;12.34;84.88
12868;BME280;33517;49.866;8.320;2023-04-28T07:01:02;100107.66;;;12.48;84.78
12868;BME280;33517;49.866;8.320;2023-04-28T07:03:55;100098.66;;;12.57;84.10
12868;BME280;33517;49.866;8.320;2023-04-28T07:06:47;100089.44;;;12.67;85.13
12868;BME280;33517;49.866;8.320;2023-04-28T07:09:40;100079.19;;;12.79;84.56
12868;BME280;33517;49.866;8.320;2023-04-28T07:12:32;100088.28;;;12.91;85.35
12868;BME280;33517;49.866;8.320;2023-04-28T07:15:24;100079.91;;;12.87;85.39
12868;BME280;33517;49.866;8.320;2023-04-28T07:18:16;100078.22;;;13.01;85.49
12868;BME280;33517;49.866;8.320;2023-04-28T07:21:08;100069.50;;;13.22;85.66
12868;BME280;33517;49.866;8.320;2023-04-28T07:24:00;100069.34;;;13.51;83.98
12868;BME280;33517;49.866;8.320;2023-04-28T07:26:53;100089.47;;;13.79;83.47
12868;BME280;33517;49.866;8.320;2023-04-28T07:29:45;100086.81;;;13.79;83.80
12868;BME280;33517;49.866;8.320;2023-04-28T07:32:37;100077.44;;;13.77;83.47
12868;BME280;33517;49.866;8.320;2023-04-28T07:35:29;100094.13;;;13.77;84.19
12868;BME280;33517;49.866;8.320;2023-04-28T07:38:21;100079.41;;;13.68;83.44
12868;BME280;33517;49.866;8.320;2023-04-28T07:41:13;100096.69;;;13.64;84.49
12868;BME280;33517;49.866;8.320;2023-04-28T07:44:07;100091.72;;;13.55;84.24
12868;BME280;33517;49.866;8.320;2023-04-28T07:47:00;100091.34;;;13.58;84.49
12868;BME280;33517;49.866;8.320;2023-04-28T07:49:52;100074.78;;;13.77;84.42
12868;BME280;33517;49.866;8.320;2023-04-28T07:52:44;100066.44;;;14.08;83.77
12868;BME280;33517;49.866;8.320;2023-04-28T07:55:36;100079.47;;;14.09;83.94
12868;BME280;33517;49.866;8.320;2023-04-28T07:58:28;100093.16;;;14.19;83.71
12868;BME280;33517;49.866;8.320;2023-04-28T08:01:21;100088.47;;;14.21;83.31
12868;BME280;33517;49.866;8.320;2023-04-28T08:04:13;100083.47;;;14.33;83.28
12868;BME280;33517;49.866;8.320;2023-04-28T08:07:05;100088.88;;;14.52;82.97
12868;BME280;33517;49.866;8.320;2023-04-28T08:09:57;100087.88;;;14.66;82.46
12868;BME280;33517;49.866;8.320;2023-04-28T08:12:49;100089.72;;;14.72;82.21
12868;BME280;33517;49.866;8.320;2023-04-28T08:15:41;100096.09;;;14.91;81.43
12868;BME280;33517;49.866;8.320;2023-04-28T08:18:34;100089.78;;;14.99;81.33
12868;BME280;33517;49.866;8.320;2023-04-28T08:21:26;100095.84;;;14.79;81.55
12868;BME280;33517;49.866;8.320;2023-04-28T08:24:18;100101.53;;;14.70;81.93
12868;BME280;33517;49.866;8.320;2023-04-28T08:27:10;100106.06;;;14.83;81.71
12868;BME280;33517;49.866;8.320;2023-04-28T08:30:02;100100.19;;;14.94;81.81
12868;BME280;33517;49.866;8.320;2023-04-28T08:32:55;100103.03;;;14.92;81.85
12868;BME280;33517;49.866;8.320;2023-04-28T08:35:48;100100.03;;;15.21;81.70
12868;BME280;33517;49.866;8.320;2023-04-28T08:38:40;100097.41;;;15.74;80.89
12868;BME280;33517;49.866;8.320;2023-04-28T08:41:33;100099.78;;;16.14;79.57
12868;BME280;33517;49.866;8.320;2023-04-28T08:44:30;100108.13;;;16.24;78.95
12868;BME280;33517;49.866;8.320;2023-04-28T08:47:27;100107.69;;;16.27;78.27
12868;BME280;33517;49.866;8.320;2023-04-28T08:50:22;100110.19;;;16.16;78.55
12868;BME280;33517;49.866;8.320;2023-04-28T08:53:22;100113.19;;;16.39;78.15
12868;BME280;33517;49.866;8.320;2023-04-28T08:56:15;100103.75;;;16.56;77.92
12868;BME280;33517;49.866;8.320;2023-04-28T08:59:07;100105.47;;;17.13;76.75
12868;BME280;33517;49.866;8.320;2023-04-28T09:01:59;100102.03;;;17.68;75.72
12868;BME280;33517;49.866;8.320;2023-04-28T09:04:51;100110.66;;;17.64;75.13
12868;BME280;33517;49.866;8.320;2023-04-28T09:07:45;100112.72;;;17.30;74.98
12868;BME280;33517;49.866;8.320;2023-04-28T09:10:39;100114.44;;;16.87;76.02
12868;BME280;33517;49.866;8.320;2023-04-28T09:13:31;100111.03;;;16.74;76.66
12868;BME280;33517;49.866;8.320;2023-04-28T09:16:38;100110.25;;;16.60;76.48
12868;BME280;33517;49.866;8.320;2023-04-28T09:19:34;100109.63;;;16.65;77.33
12868;BME280;33517;49.866;8.320;2023-04-28T09:22:27;100110.34;;;16.85;76.09
12868;BME280;33517;49.866;8.320;2023-04-28T09:25:20;100115.03;;;16.89;76.00
12868;BME280;33517;49.866;8.320;2023-04-28T09:28:20;100110.66;;;16.64;76.76
12868;BME280;33517;49.866;8.320;2023-04-28T09:31:21;100120.09;;;16.46;76.91
12868;BME280;33517;49.866;8.320;2023-04-28T09:34:13;100113.41;;;16.31;77.51
12868;BME280;33517;49.866;8.320;2023-04-28T09:37:13;100110.13;;;16.42;77.42
12868;BME280;33517;49.866;8.320;2023-04-28T09:40:07;100113.91;;;16.66;77.20
12868;BME280;33517;49.866;8.320;2023-04-28T09:42:59;100120.72;;;16.93;76.53
12868;BME280;33517;49.866;8.320;2023-04-28T09:45:53;100112.75;;;16.93;75.71
12868;BME280;33517;49.866;8.320;2023-04-28T09:48:45;100109.56;;;16.78;76.00
12868;BME280;33517;49.866;8.320;2023-04-28T09:51:37;100113.81;;;16.92;77.19
12868;BME280;33517;49.866;8.320;2023-04-28T09:54:29;100107.19;;;17.01;76.88
12868;BME280;33517;49.866;8.320;2023-04-28T09:57:22;100105.41;;;17.26;76.65
12868;BME280;33517;49.866;8.320;2023-04-28T10:00:16;100109.75;;;18.12;74.93
12868;BME280;33517;49.866;8.320;2023-04-28T10:03:10;100100.56;;;20.09;70.69
12868;BME280;33517;49.866;8.320;2023-04-28T10:06:03;100104.06;;;22.82;64.45
12868;BME280;33517;49.866;8.320;2023-04-28T10:08:57;100109.22;;;22.45;65.04
12868;BME280;33517;49.866;8.320;2023-04-28T10:11:49;100103.75;;;21.31;64.54
12868;BME280;33517;49.866;8.320;2023-04-28T10:14:42;100108.63;;;20.49;64.91
12868;BME280;33517;49.866;8.320;2023-04-28T10:17:34;100109.72;;;20.02;67.25
12868;BME280;33517;49.866;8.320;2023-04-28T10:20:29;100115.28;;;19.54;68.35
12868;BME280;33517;49.866;8.320;2023-04-28T10:23:41;100107.84;;;19.03;68.98
12868;BME280;33517;49.866;8.320;2023-04-28T10:27:05;100110.66;;;18.61;70.50
12868;BME280;33517;49.866;8.320;2023-04-28T10:30:11;100096.38;;;18.55;70.48
12868;BME280;33517;49.866;8.320;2023-04-28T10:33:22;100095.13;;;18.58;71.05
12868;BME280;33517;49.866;8.320;2023-04-28T10:36:48;100097.19;;;18.56;70.81
12868;BME280;33517;49.866;8.320;2023-04-28T10:43:08;100098.44;;;18.71;70.08
12868;BME280;33517;49.866;8.320;2023-04-28T10:46:02;100095.72;;;18.60;70.42
12868;BME280;33517;49.866;8.320;2023-04-28T10:48:56;100099.16;;;18.49;70.38
12868;BME280;33517;49.866;8.320;2023-04-28T10:51:49;100101.19;;;18.28;71.29
12868;BME280;33517;49.866;8.320;2023-04-28T10:58:30;100092.94;;;17.94;72.63
12868;BME280;33517;49.866;8.320;2023-04-28T11:01:27;100093.72;;;18.01;72.45
12868;BME280;33517;49.866;8.320;2023-04-28T11:04:20;100088.97;;;18.21;72.27
12868;BME280;33517;49.866;8.320;2023-04-28T11:07:15;100096.06;;;18.09;72.14
12868;BME280;33517;49.866;8.320;2023-04-28T11:10:07;100096.28;;;17.89;73.21
12868;BME280;33517;49.866;8.320;2023-04-28T11:13:24;100087.88;;;17.68;74.24
12868;BME280;33517;49.866;8.320;2023-04-28T11:16:18;100093.97;;;17.50;74.54
12868;BME280;33517;49.866;8.320;2023-04-28T11:19:11;100096.22;;;17.22;74.96
12868;BME280;33517;49.866;8.320;2023-04-28T11:22:05;100092.00;;;17.08;75.53
12868;BME280;33517;49.866;8.320;2023-04-28T11:25:02;100092.47;;;16.98;75.39
12868;BME280;33517;49.866;8.320;2023-04-28T11:28:02;100087.78;;;16.94;76.54
12868;BME280;33517;49.866;8.320;2023-04-28T11:31:09;100083.50;;;16.99;76.91
12868;BME280;33517;49.866;8.320;2023-04-28T11:34:03;100079.16;;;17.05;76.79
12868;BME280;33517;49.866;8.320;2023-04-28T11:36:56;100081.13;;;17.16;76.56
12868;BME280;33517;49.866;8.320;2023-04-28T11:39:48;100085.06;;;17.07;76.05
12868;BME280;33517;49.866;8.320;2023-04-28T11:42:47;100087.97;;;16.99;76.39
12868;BME280;33517;49.866;8.320;2023-04-28T11:45:44;100097.44;;;16.88;77.40
12868;BME280;33517;49.866;8.320;2023-04-28T11:48:36;100083.38;;;16.81;77.54
12868;BME280;33517;49.866;8.320;2023-04-28T11:51:36;100078.66;;;16.83;77.70
12868;BME280;33517;49.866;8.320;2023-04-28T11:54:28;100070.22;;;16.93;77.74
12868;BME280;33517;49.866;8.320;2023-04-28T11:57:20;100075.94;;;17.21;77.01
12868;BME280;33517;49.866;8.320;2023-04-28T12:00:14;100076.28;;;17.80;76.10
12868;BME280;33517;49.866;8.320;2023-04-28T12:03:11;100067.81;;;19.56;73.86
12868;BME280;33517;49.866;8.320;2023-04-28T12:06:04;100060.47;;;20.89;71.37
12868;BME280;33517;49.866;8.320;2023-04-28T12:08:56;100060.97;;;20.86;70.29
12868;BME280;33517;49.866;8.320;2023-04-28T12:11:53;100071.22;;;20.77;70.57
12868;BME280;33517;49.866;8.320;2023-04-28T12:14:53;100064.75;;;22.49;67.95
12868;BME280;33517;49.866;8.320;2023-04-28T12:17:47;100056.63;;;23.83;62.96
12868;BME280;33517;49.866;8.320;2023-04-28T12:20:40;100052.03;;;24.35;60.31
12868;BME280;33517;49.866;8.320;2023-04-28T12:23:34;100058.47;;;24.29;58.69
12868;BME280;33517;49.866;8.320;2023-04-28T12:26:26;100057.91;;;26.97;56.79
12868;BME280;33517;49.866;8.320;2023-04-28T12:29:37;100063.91;;;27.33;51.50
12868;BME280;33517;49.866;8.320;2023-04-28T12:32:37;100062.50;;;25.48;53.21
12868;BME280;33517;49.866;8.320;2023-04-28T12:35:31;100052.50;;;25.24;55.56
12868;BME280;33517;49.866;8.320;2023-04-28T12:38:23;100048.63;;;24.69;54.33
12868;BME280;33517;49.866;8.320;2023-04-28T12:41:15;100058.28;;;24.50;57.20
12868;BME280;33517;49.866;8.320;2023-04-28T12:44:07;100051.66;;;23.69;58.30
12868;BME280;33517;49.866;8.320;2023-04-28T12:46:59;100053.78;;;22.72;60.92
12868;BME280;33517;49.866;8.320;2023-04-28T12:49:51;100049.69;;;20.84;66.66
12868;BME280;33517;49.866;8.320;2023-04-28T12:52:44;100052.91;;;20.30;70.08
12868;BME280;33517;49.866;8.320;2023-04-28T12:55:37;100053.72;;;20.30;70.47
12868;BME280;33517;49.866;8.320;2023-04-28T12:58:30;100047.81;;;20.16;71.02
12868;BME280;33517;49.866;8.320;2023-04-28T13:01:22;100044.94;;;19.49;75.16
12868;BME280;33517;49.866;8.320;2023-04-28T13:04:14;100045.66;;;19.79;74.52
12868;BME280;33517;49.866;8.320;2023-04-28T13:07:06;100051.00;;;19.67;74.81
12868;BME280;33517;49.866;8.320;2023-04-28T13:10:00;100050.38;;;20.00;74.09
12868;BME280;33517;49.866;8.320;2023-04-28T13:12:51;100035.09;;;19.84;74.13
12868;BME280;33517;49.866;8.320;2023-04-28T13:15:43;100043.00;;;19.67;75.40
12868;BME280;33517;49.866;8.320;2023-04-28T13:18:36;100038.56;;;19.38;76.41
12868;BME280;33517;49.866;8.320;2023-04-28T13:21:27;100032.31;;;19.33;78.02
12868;BME280;33517;49.866;8.320;2023-04-28T13:24:19;100038.03;;;19.18;78.48
12868;BME280;33517;49.866;8.320;2023-04-28T13:27:13;100032.19;;;18.86;81.61
12868;BME280;33517;49.866;8.320;2023-04-28T13:30:05;100027.59;;;19.05;82.00
12868;BME280;33517;49.866;8.320;2023-04-28T13:32:58;100030.13;;;19.00;81.40
12868;BME280;33517;49.866;8.320;2023-04-28T13:35:50;100016.59;;;19.24;81.25
12868;BME280;33517;49.866;8.320;2023-04-28T13:38:42;100009.06;;;19.10;81.62
12868;BME280;33517;49.866;8.320;2023-04-28T13:41:38;100006.75;;;18.72;82.96
12868;BME280;33517;49.866;8.320;2023-04-28T13:44:31;100002.72;;;18.70;83.81
12868;BME280;33517;49.866;8.320;2023-04-28T13:47:23;100022.31;;;18.27;85.62
12868;BME280;33517;49.866;8.320;2023-04-28T13:50:16;100009.94;;;18.33;86.49
12868;BME280;33517;49.866;8.320;2023-04-28T13:53:08;100006.31;;;18.46;86.17
12868;BME280;33517;49.866;8.320;2023-04-28T13:56:00;99985.41;;;18.61;86.42
12868;BME280;33517;49.866;8.320;2023-04-28T13:58:52;99982.72;;;18.61;87.57
12868;BME280;33517;49.866;8.320;2023-04-28T14:01:45;99957.66;;;19.03;86.90
12868;BME280;33517;49.866;8.320;2023-04-28T14:04:37;99951.84;;;18.83;86.81
12868;BME280;33517;49.866;8.320;2023-04-28T14:07:29;99947.56;;;19.16;86.00
12868;BME280;33517;49.866;8.320;2023-04-28T14:10:21;99941.56;;;19.56;85.07
12868;BME280;33517;49.866;8.320;2023-04-28T14:13:13;99948.50;;;19.57;84.54
12868;BME280;33517;49.866;8.320;2023-04-28T14:16:06;99951.72;;;19.82;83.79
12868;BME280;33517;49.866;8.320;2023-04-28T14:18:59;99949.44;;;19.51;83.89
12868;BME280;33517;49.866;8.320;2023-04-28T14:21:51;99938.41;;;19.59;84.31
12868;BME280;33517;49.866;8.320;2023-04-28T14:24:43;99933.41;;;20.02;83.66
12868;BME280;33517;49.866;8.320;2023-04-28T14:27:35;99939.25;;;19.99;82.31
12868;BME280;33517;49.866;8.320;2023-04-28T14:30:27;99934.75;;;19.88;81.48
12868;BME280;33517;49.866;8.320;2023-04-28T14:33:19;99933.72;;;20.29;79.92
12868;BME280;33517;49.866;8.320;2023-04-28T14:36:12;99937.69;;;20.14;79.92
12868;BME280;33517;49.866;8.320;2023-04-28T14:39:04;99943.31;;;20.01;79.24
12868;BME280;33517;49.866;8.320;2023-04-28T14:41:58;99932.63;;;20.01;80.44
12868;BME280;33517;49.866;8.320;2023-04-28T14:44:50;99940.00;;;19.71;80.43
12868;BME280;33517;49.866;8.320;2023-04-28T14:47:42;99944.88;;;19.74;81.94
12868;BME280;33517;49.866;8.320;2023-04-28T14:50:34;99936.03;;;20.13;80.08
12868;BME280;33517;49.866;8.320;2023-04-28T14:53:27;99931.16;;;20.22;78.85
12868;BME280;33517;49.866;8.320;2023-04-28T14:56:19;99932.94;;;20.05;78.74
12868;BME280;33517;49.866;8.320;2023-04-28T14:59:11;99940.53;;;19.96;79.99
12868;BME280;33517;49.866;8.320;2023-04-28T15:02:03;99925.97;;;19.76;81.51
12868;BME280;33517;49.866;8.320;2023-04-28T15:04:56;99929.91;;;19.73;82.07
12868;BME280;33517;49.866;8.320;2023-04-28T15:07:48;99938.06;;;19.55;82.75
12868;BME280;33517;49.866;8.320;2023-04-28T15:10:41;99940.84;;;19.49;84.14
12868;BME280;33517;49.866;8.320;2023-04-28T15:13:33;99938.31;;;19.54;84.38